Time;durP1;ratioP1;P1;durP2;ratioP2;P2;SDS_P1;SDS_P2;PMS_P1;PMS_P2;Temp;Humidity;BMP_temperature;BMP_pressure;BME280_temperature;BME280_humidity;BME280_pressure;Samples;Min_cycle;Max_cycle;Signal;HPM_P1;HPM_P2
2022/08/02 00:01:32;;;;;;;;;3.00;3.00;;;;;23.19;54.34;101235.63;5097500;27;45527;-67
2022/08/02 00:03:58;;;;;;;;;4.00;4.00;;;;;23.24;53.90;101248.72;5095651;27;45578;-66
2022/08/02 00:06:23;;;;;;;;;3.50;3.25;;;;;23.23;54.17;101249.72;5097242;27;45722;-66
2022/08/02 00:08:49;;;;;;;;;3.50;2.00;;;;;23.18;53.92;101241.19;5079538;27;45485;-67
2022/08/02 00:11:14;;;;;;;;;3.75;2.00;;;;;23.14;54.12;101239.78;5098847;27;45757;-67
2022/08/02 00:13:40;;;;;;;;;1.50;1.50;;;;;23.12;54.05;101244.50;5099713;27;45348;-67
2022/08/02 00:16:05;;;;;;;;;4.00;4.00;;;;;23.10;54.43;101236.50;5078389;27;45176;-66
2022/08/02 00:18:30;;;;;;;;;4.50;3.50;;;;;23.01;54.22;101223.00;5077075;28;45527;-65
2022/08/02 00:20:56;;;;;;;;;3.00;3.00;;;;;23.09;54.18;101236.66;5076330;28;45340;-67
2022/08/02 00:23:21;;;;;;;;;3.00;2.75;;;;;23.06;54.24;101226.97;5058357;28;45890;-67
2022/08/02 00:25:47;;;;;;;;;2.00;2.00;;;;;23.07;54.19;101233.25;5076793;28;45309;-67
2022/08/02 00:28:12;;;;;;;;;3.00;3.00;;;;;23.04;54.35;101228.97;5076926;28;45149;-66
2022/08/02 00:30:37;;;;;;;;;5.25;3.00;;;;;23.05;54.80;101232.53;5094394;27;46309;-66
2022/08/02 00:33:04;;;;;;;;;4.50;4.50;;;;;23.05;54.16;101228.00;5094510;27;45500;-67
2022/08/02 00:35:30;;;;;;;;;3.75;3.75;;;;;22.95;54.32;101219.91;5077113;28;45358;-66
2022/08/02 00:37:56;;;;;;;;;3.50;3.50;;;;;23.03;54.34;101242.69;5077383;28;45564;-67
2022/08/02 00:40:22;;;;;;;;;2.50;2.50;;;;;23.00;54.25;101232.13;5076870;28;45788;-66
2022/08/02 00:43:03;;;;;;;;;4.00;4.00;;;;;22.98;54.40;101234.16;5095484;27;45451;-66
2022/08/02 00:45:33;;;;;;;;;3.25;3.00;;;;;22.94;54.58;101233.59;5096868;27;45458;-67
2022/08/02 00:47:59;;;;;;;;;2.00;2.00;;;;;22.87;55.03;101230.63;5078481;27;45478;-67
2022/08/02 00:50:26;;;;;;;;;4.25;4.25;;;;;22.80;55.25;101229.50;5096475;27;46188;-66
2022/08/02 00:52:51;;;;;;;;;4.75;3.00;;;;;22.80;55.51;101232.22;5095707;27;45231;-66
2022/08/02 00:55:16;;;;;;;;;3.00;3.00;;;;;22.80;55.00;101239.50;5096745;27;45423;-67
2022/08/02 00:57:42;;;;;;;;;5.00;2.50;;;;;22.78;54.77;101239.63;5097788;27;45512;-65
2022/08/02 01:00:14;;;;;;;;;3.00;2.00;;;;;22.77;55.00;101240.63;5097499;27;45636;-66
2022/08/02 01:02:40;;;;;;;;;3.00;3.00;;;;;22.77;55.17;101240.63;5100552;27;45336;-68
2022/08/02 01:05:06;;;;;;;;;3.00;3.00;;;;;22.75;55.04;101231.78;5100573;27;45378;-69
2022/08/02 01:07:31;;;;;;;;;3.75;3.75;;;;;22.77;55.20;101232.50;5103468;27;45378;-67
2022/08/02 01:09:57;;;;;;;;;2.75;2.75;;;;;22.69;55.75;101232.41;5100597;27;45781;-67
2022/08/02 01:12:22;;;;;;;;;4.25;3.00;;;;;22.62;56.07;101239.41;5100551;27;45173;-68
2022/08/02 01:14:54;;;;;;;;;5.50;4.75;;;;;22.51;56.61;101229.59;5100085;27;45188;-68
2022/08/02 01:17:27;;;;;;;;;3.00;3.00;;;;;22.52;56.36;101233.16;5099906;27;45321;-67
2022/08/02 01:20:02;;;;;;;;;2.00;2.00;;;;;22.46;56.05;101233.75;5100891;27;45466;-68
2022/08/02 01:22:47;;;;;;;;;3.00;3.00;;;;;22.44;56.42;101235.78;5081401;27;45327;-66
2022/08/02 01:25:18;;;;;;;;;2.25;2.25;;;;;22.45;56.39;101243.75;5100483;27;45300;-66
2022/08/02 01:28:15;;;;;;;;;3.25;2.00;;;;;22.43;56.61;101239.47;5099564;27;45611;-67
2022/08/02 01:30:46;;;;;;;;;3.00;3.00;;;;;22.35;56.77;101243.78;5098786;27;45383;-69
2022/08/02 01:33:18;;;;;;;;;4.00;4.00;;;;;22.24;57.06;101241.22;5095266;27;45570;-66
2022/08/02 01:35:49;;;;;;;;;3.00;3.00;;;;;22.28;57.07;101258.06;5061752;28;45505;-68
2022/08/02 01:38:34;;;;;;;;;2.00;2.00;;;;;22.28;56.52;101249.94;5080044;28;45425;-67
2022/08/02 01:41:02;;;;;;;;;2.50;2.50;;;;;22.22;56.14;101247.78;5081676;27;46142;-67
2022/08/02 01:43:30;;;;;;;;;4.50;3.75;;;;;22.23;56.50;101244.94;5099626;27;45390;-67
2022/08/02 01:45:58;;;;;;;;;4.50;2.75;;;;;22.29;56.44;101255.22;5099916;27;45262;-67
2022/08/02 01:48:27;;;;;;;;;2.50;2.50;;;;;22.34;56.02;101249.34;5098605;27;45480;-67
2022/08/02 01:50:53;;;;;;;;;4.25;3.00;;;;;22.32;56.03;101246.78;5099185;27;46116;-66
2022/08/02 01:53:24;;;;;;;;;1.00;1.00;;;;;22.24;55.64;101246.63;5099193;27;45732;-67
2022/08/02 01:55:52;;;;;;;;;3.00;3.00;;;;;22.22;56.42;101243.22;5099756;27;45520;-67
2022/08/02 01:58:21;;;;;;;;;3.00;3.00;;;;;22.26;55.92;101243.78;5099962;27;45362;-67
2022/08/02 02:00:48;;;;;;;;;3.00;3.00;;;;;22.24;56.30;101237.66;5099364;27;46242;-66
2022/08/02 02:03:18;;;;;;;;;4.75;3.00;;;;;22.28;55.72;101242.66;5099385;27;45587;-66
2022/08/02 02:05:47;;;;;;;;;3.25;2.00;;;;;22.26;55.37;101236.50;5077959;27;45447;-67
2022/08/02 02:08:16;;;;;;;;;3.00;3.00;;;;;22.21;55.50;101240.66;5099336;27;45553;-68
2022/08/02 02:10:44;;;;;;;;;3.25;2.00;;;;;22.21;55.67;101240.66;5099542;27;46405;-67
2022/08/02 02:13:16;;;;;;;;;5.33;3.67;;;;;22.22;56.05;101242.38;5099963;27;45433;-67
2022/08/02 02:15:48;;;;;;;;;3.67;3.67;;;;;22.23;55.85;101233.25;5098474;27;45417;-67
2022/08/02 02:18:20;;;;;;;;;6.50;3.50;;;;;22.18;55.82;101225.56;5098913;27;45505;-67
2022/08/02 02:20:47;;;;;;;;;2.75;2.75;;;;;22.15;56.34;101225.84;5098849;27;46574;-67
2022/08/02 02:23:12;;;;;;;;;4.00;4.00;;;;;22.12;55.97;101215.28;5098770;27;45243;-68
2022/08/02 02:25:40;;;;;;;;;2.75;2.75;;;;;22.13;55.85;101217.00;5098898;27;45315;-67
2022/08/02 02:28:09;;;;;;;;;4.00;3.00;;;;;22.10;55.92;101228.13;5099141;27;45368;-68
2022/08/02 02:30:38;;;;;;;;;2.25;2.25;;;;;22.07;56.09;101223.00;5097626;27;45402;-67
2022/08/02 02:33:06;;;;;;;;;3.50;3.50;;;;;22.08;55.59;101227.44;5095956;27;45456;-67
2022/08/02 02:35:35;;;;;;;;;3.00;3.00;;;;;22.04;55.56;101223.28;5060247;28;45487;-66
2022/08/02 02:38:03;;;;;;;;;3.25;2.75;;;;;22.02;55.52;101217.16;5078459;28;45477;-68
2022/08/02 02:40:30;;;;;;;;;4.50;4.25;;;;;22.00;55.22;101222.69;5077809;28;45374;-68
2022/08/02 02:42:58;;;;;;;;;3.00;3.00;;;;;22.01;55.55;101226.28;5092832;27;45829;-68
2022/08/02 02:45:25;;;;;;;;;3.00;3.00;;;;;21.99;55.66;101214.72;5098583;27;45293;-66
2022/08/02 02:47:54;;;;;;;;;2.00;2.00;;;;;21.98;55.50;101213.00;5099114;27;45531;-70
2022/08/02 02:50:21;;;;;;;;;2.50;2.50;;;;;21.98;55.43;101221.13;5098506;27;46401;-67
2022/08/02 02:52:47;;;;;;;;;4.00;3.00;;;;;21.86;55.16;101211.44;5098564;27;45467;-67
2022/08/02 02:55:13;;;;;;;;;1.00;1.00;;;;;21.88;55.54;101223.00;5097883;27;45417;-68
2022/08/02 02:57:40;;;;;;;;;5.67;3.00;;;;;21.88;55.38;101217.59;5098413;27;45560;-67
2022/08/02 03:00:09;;;;;;;;;4.00;2.00;;;;;21.82;55.29;101201.91;5098205;27;45693;-67
2022/08/02 03:02:37;;;;;;;;;3.00;3.00;;;;;21.94;55.31;101209.75;5098172;27;45569;-67
2022/08/02 03:05:03;;;;;;;;;2.75;2.00;;;;;21.95;55.35;101213.28;5098370;27;45401;-66
2022/08/02 03:07:28;;;;;;;;;3.00;3.00;;;;;21.89;54.84;101203.06;5097745;27;45472;-67
2022/08/02 03:09:54;;;;;;;;;5.25;3.75;;;;;21.91;55.25;101214.59;5097246;27;45317;-67
2022/08/02 03:12:22;;;;;;;;;3.00;1.75;;;;;21.84;55.33;101208.03;5098321;27;45166;-67
2022/08/02 03:14:47;;;;;;;;;2.00;2.00;;;;;21.83;55.27;101209.03;5098274;27;45251;-67
2022/08/02 03:17:13;;;;;;;;;1.67;1.67;;;;;21.77;55.32;101219.44;5098593;27;45378;-67
2022/08/02 03:19:38;;;;;;;;;3.00;3.00;;;;;21.81;55.19;101220.00;5077920;27;46977;-67
2022/08/02 03:22:03;;;;;;;;;1.75;1.75;;;;;21.74;55.20;101210.75;5079806;27;45270;-67
2022/08/02 03:24:29;;;;;;;;;1.00;1.00;;;;;21.83;55.09;101217.16;5098340;27;45464;-67
2022/08/02 03:26:55;;;;;;;;;3.00;3.00;;;;;21.85;55.07;101218.72;5097712;27;45585;-66
2022/08/02 03:29:20;;;;;;;;;4.67;3.00;;;;;21.83;55.19;101211.75;5098493;27;46251;-68
2022/08/02 03:31:45;;;;;;;;;1.75;1.75;;;;;21.84;55.02;101211.59;5096916;27;45302;-68
2022/08/02 03:34:11;;;;;;;;;2.00;2.00;;;;;21.84;55.14;101210.75;5085784;27;45318;-67
2022/08/02 03:36:38;;;;;;;;;2.00;2.00;;;;;21.77;55.21;101195.09;5059227;28;45406;-67
2022/08/02 03:39:05;;;;;;;;;2.00;1.25;;;;;21.84;54.71;101211.59;5077183;28;45351;-68
2022/08/02 03:41:32;;;;;;;;;2.00;2.00;;;;;21.77;55.08;101211.31;5077620;28;45294;-68
2022/08/02 03:43:58;;;;;;;;;5.00;3.33;;;;;21.67;55.00;101206.91;5096572;27;45438;-69
2022/08/02 03:46:25;;;;;;;;;2.33;2.33;;;;;21.63;55.44;101219.88;5063593;27;45571;-69
2022/08/02 03:48:51;;;;;;;;;2.33;2.33;;;;;21.59;55.19;101212.16;5097459;27;45991;-67
2022/08/02 03:51:19;;;;;;;;;2.00;2.00;;;;;21.54;55.25;101203.63;5097886;27;45345;-69
2022/08/02 03:53:46;;;;;;;;;2.33;2.33;;;;;21.58;55.43;101195.06;5097596;27;45392;-67
2022/08/02 03:56:12;;;;;;;;;1.00;1.00;;;;;21.58;55.14;101194.22;5097681;27;45303;-67
2022/08/02 03:58:37;;;;;;;;;3.33;2.00;;;;;21.58;55.37;101208.59;5097337;27;45492;-66
2022/08/02 04:01:03;;;;;;;;;2.33;2.33;;;;;21.52;55.65;101206.47;5095582;27;45522;-67
2022/08/02 04:03:28;;;;;;;;;2.00;2.00;;;;;21.46;55.46;101190.78;5097489;27;45728;-65
2022/08/02 04:05:54;;;;;;;;;2.67;2.67;;;;;21.50;55.89;101203.06;5095823;27;47088;-67
2022/08/02 04:08:19;;;;;;;;;3.67;2.00;;;;;21.41;55.61;101187.66;5097096;27;46684;-66
2022/08/02 04:13:33;;;;;;;;;2.00;2.00;;;;;21.43;55.47;101201.91;5097535;27;45426;-70
2022/08/02 04:16:05;;;;;;;;;2.33;2.33;;;;;21.43;55.84;101212.72;5097240;27;45622;-67
2022/08/02 04:18:37;;;;;;;;;4.00;2.67;;;;;21.36;55.83;101200.78;5096867;27;46158;-66
2022/08/02 04:21:04;;;;;;;;;3.00;3.00;;;;;21.45;55.96;101195.34;5096294;27;45375;-66
2022/08/02 04:23:34;;;;;;;;;3.25;3.00;;;;;21.45;55.69;101194.50;5096096;27;45366;-67
2022/08/02 04:26:02;;;;;;;;;2.00;2.00;;;;;21.46;55.53;101186.25;5078824;27;45472;-67
2022/08/02 04:28:28;;;;;;;;;2.00;2.00;;;;;21.48;55.38;101197.81;5097234;27;46161;-64
2022/08/02 04:30:55;;;;;;;;;3.50;1.00;;;;;21.42;56.00;101189.38;5095310;27;45486;-64
2022/08/02 04:33:21;;;;;;;;;3.00;3.00;;;;;21.43;55.60;101196.50;5091219;27;45358;-62
2022/08/02 04:35:46;;;;;;;;;2.00;2.00;;;;;21.35;56.00;101196.34;5082316;27;45510;-61
2022/08/02 04:38:14;;;;;;;;;3.00;3.00;;;;;21.38;56.33;101209.59;5096779;27;45423;-63
2022/08/02 04:40:40;;;;;;;;;3.00;3.00;;;;;21.40;56.51;101207.59;5095938;27;45446;-65
2022/08/02 04:43:06;;;;;;;;;2.00;2.00;;;;;21.42;55.96;101205.63;5078555;27;45269;-65
2022/08/02 04:45:32;;;;;;;;;4.00;4.00;;;;;21.47;56.08;101212.28;5097322;27;45401;-65
2022/08/02 04:47:57;;;;;;;;;3.67;3.67;;;;;21.46;56.28;101201.63;5097186;27;46167;-63
2022/08/02 04:50:23;;;;;;;;;3.33;3.33;;;;;21.35;56.74;101205.31;5096380;27;45306;-63
2022/08/02 04:52:48;;;;;;;;;4.00;4.00;;;;;21.34;57.09;101210.88;5096887;27;45340;-63
2022/08/02 04:55:13;;;;;;;;;3.33;3.33;;;;;21.26;57.25;101206.16;5096613;27;45261;-63
2022/08/02 04:57:54;;;;;;;;;3.00;3.00;;;;;21.13;57.00;101181.19;5096539;27;45169;-64
2022/08/02 05:00:20;;;;;;;;;3.00;3.00;;;;;21.26;57.17;101199.91;5096030;27;45330;-63
2022/08/02 05:02:47;;;;;;;;;5.67;5.00;;;;;21.27;57.03;101202.47;5094410;27;45414;-65
2022/08/02 05:05:13;;;;;;;;;8.00;7.00;;;;;21.27;56.96;101207.88;5077016;27;45692;-68
2022/08/02 05:07:38;;;;;;;;;4.33;4.33;;;;;21.20;57.08;101203.97;5096895;27;45921;-66
2022/08/02 05:10:04;;;;;;;;;6.00;5.00;;;;;21.18;57.25;101209.53;5096858;27;45309;-66
2022/08/02 05:12:29;;;;;;;;;6.75;3.25;;;;;21.25;56.84;101209.88;5096581;27;45452;-65
2022/08/02 05:14:54;;;;;;;;;6.00;5.00;;;;;21.33;57.30;101211.84;5096578;27;45488;-65
2022/08/02 05:17:20;;;;;;;;;4.33;4.33;;;;;21.32;57.23;101207.44;5095984;27;45975;-64
2022/08/02 05:19:46;;;;;;;;;3.00;3.00;;;;;21.33;57.21;101203.75;5069801;28;45343;-64
2022/08/02 05:22:11;;;;;;;;;6.67;5.33;;;;;21.29;56.82;101188.78;5090645;27;45294;-66
2022/08/02 05:24:37;;;;;;;;;5.00;5.00;;;;;21.25;56.76;101187.34;5076427;27;45396;-64
2022/08/02 05:27:02;;;;;;;;;9.33;6.00;;;;;21.33;56.49;101203.75;5075423;28;46116;-65
2022/08/02 05:29:28;;;;;;;;;6.67;6.67;;;;;21.33;56.67;101207.31;5082653;27;45306;-67
2022/08/02 05:31:53;;;;;;;;;4.00;4.00;;;;;21.29;56.73;101205.88;5077911;27;45463;-66
2022/08/02 05:34:19;;;;;;;;;7.00;5.67;;;;;21.35;56.69;101223.38;5083227;27;45528;-65
2022/08/02 05:36:44;;;;;;;;;6.00;4.00;;;;;21.34;56.90;101214.41;5076921;27;46368;-64
2022/08/02 05:39:10;;;;;;;;;5.33;5.00;;;;;21.38;56.76;101231.25;5095272;27;45480;-65
2022/08/02 05:41:35;;;;;;;;;3.67;3.00;;;;;21.37;56.95;101226.84;5096017;27;45303;-63
2022/08/02 05:44:02;;;;;;;;;6.00;6.00;;;;;21.36;57.15;101217.88;5077307;27;45736;-67
2022/08/02 05:46:27;;;;;;;;;8.33;5.00;;;;;21.37;56.83;101214.16;5095883;27;46181;-66
2022/08/02 05:48:52;;;;;;;;;4.33;3.00;;;;;21.36;56.78;101222.44;5094728;27;46232;-64
2022/08/02 05:51:24;;;;;;;;;8.00;6.00;;;;;21.34;55.93;101218.97;5097960;27;45246;-64
2022/08/02 05:53:54;;;;;;;;;5.00;5.00;;;;;21.34;57.02;101221.69;5081292;27;45203;-67
2022/08/02 05:56:20;;;;;;;;;6.00;5.00;;;;;21.31;57.26;101221.97;5098686;27;46408;-63
2022/08/02 05:58:51;;;;;;;;;6.50;6.50;;;;;21.31;57.20;101213.84;5080125;27;46178;-62
2022/08/02 06:01:26;;;;;;;;;5.67;5.67;;;;;21.27;57.35;101213.28;5099007;27;45803;-66
2022/08/02 06:03:55;;;;;;;;;8.00;7.00;;;;;21.24;57.40;101213.53;5081881;27;45387;-65
2022/08/02 06:06:24;;;;;;;;;7.00;6.00;;;;;21.33;57.40;101217.28;5099710;27;46324;-64
2022/08/02 06:08:54;;;;;;;;;5.33;5.33;;;;;21.36;57.36;101211.59;5081380;27;45449;-65
2022/08/02 06:11:24;;;;;;;;;7.00;4.00;;;;;21.39;56.56;101216.72;5099016;27;45413;-65
2022/08/02 06:13:51;;;;;;;;;9.67;5.33;;;;;21.37;56.77;101219.56;5082037;27;46144;-64
2022/08/02 06:16:18;;;;;;;;;7.33;5.00;;;;;21.30;56.87;101207.59;5100116;27;45251;-66
2022/08/02 06:18:44;;;;;;;;;5.00;5.00;;;;;21.40;57.10;101221.13;5099812;27;45242;-66
2022/08/02 06:21:13;;;;;;;;;5.50;3.00;;;;;21.40;56.87;101215.72;5098497;27;45406;-65
2022/08/02 06:23:41;;;;;;;;;6.00;4.50;;;;;21.31;56.52;101203.03;5099186;27;45474;-66
2022/08/02 06:26:10;;;;;;;;;3.00;3.00;;;;;21.42;56.41;101221.84;5097698;27;45647;-64
2022/08/02 06:28:39;;;;;;;;;7.00;5.00;;;;;21.45;56.43;101221.56;5098147;27;45496;-64
2022/08/02 06:31:08;;;;;;;;;3.33;3.33;;;;;21.51;55.95;101231.84;5097539;27;45421;-64
2022/08/02 06:33:34;;;;;;;;;3.00;3.00;;;;;21.48;55.71;101232.09;5098643;27;45326;-64
2022/08/02 06:36:26;;;;;;;;;10.00;6.33;;;;;21.48;55.91;101232.09;5080058;27;45734;-65
2022/08/02 06:39:13;;;;;;;;;3.33;2.67;;;;;21.51;55.99;101223.72;5080128;27;45528;-65
2022/08/02 06:41:41;;;;;;;;;5.00;4.00;;;;;21.56;56.10;101229.56;5096693;27;45315;-65
2022/08/02 06:44:07;;;;;;;;;3.00;3.00;;;;;21.54;55.92;101220.72;5098534;27;45416;-63
2022/08/02 06:46:34;;;;;;;;;4.25;3.00;;;;;21.65;56.00;101230.56;5097579;27;46565;-64
2022/08/02 06:49:01;;;;;;;;;5.67;4.67;;;;;21.63;55.84;101219.88;5076114;28;45318;-64
2022/08/02 06:51:27;;;;;;;;;6.00;5.00;;;;;21.72;55.70;101229.84;5098391;27;45261;-67
2022/08/02 06:53:52;;;;;;;;;3.00;3.00;;;;;21.68;56.22;101231.13;5099799;27;45319;-65
2022/08/02 06:56:18;;;;;;;;;5.00;5.00;;;;;21.70;56.06;101241.81;5098668;27;46274;-64
2022/08/02 06:58:44;;;;;;;;;5.67;3.00;;;;;21.68;56.02;101246.50;5097503;27;46319;-64
2022/08/02 07:01:09;;;;;;;;;5.00;4.00;;;;;21.69;55.92;101240.09;5097411;27;45283;-65
2022/08/02 07:03:37;;;;;;;;;7.33;7.33;;;;;21.74;56.37;101248.63;5097703;27;45726;-65
2022/08/02 07:06:04;;;;;;;;;5.75;4.50;;;;;21.72;56.51;101256.06;5079765;27;46122;-65
2022/08/02 07:08:34;;;;;;;;;7.00;5.67;;;;;21.75;56.10;101244.97;5079425;27;45311;-63
2022/08/02 07:11:00;;;;;;;;;4.00;4.00;;;;;21.85;55.87;101242.22;5097657;27;45370;-66
2022/08/02 07:13:27;;;;;;;;;2.00;2.00;;;;;21.90;55.78;101245.38;5098224;27;45383;-65
2022/08/02 07:15:53;;;;;;;;;5.00;5.00;;;;;21.95;55.94;101248.50;5097788;27;45454;-64
2022/08/02 07:18:19;;;;;;;;;6.67;5.00;;;;;21.87;55.65;101229.41;5079502;27;45350;-64
2022/08/02 07:20:45;;;;;;;;;4.67;4.67;;;;;21.99;55.59;101242.66;5097280;27;45336;-65
2022/08/02 07:23:11;;;;;;;;;5.00;5.00;;;;;22.08;55.23;101246.38;5098521;27;45579;-65
2022/08/02 07:25:40;;;;;;;;;4.00;3.00;;;;;22.05;55.29;101236.69;5098066;27;45414;-65
2022/08/02 07:28:08;;;;;;;;;5.50;5.50;;;;;22.10;55.08;101244.38;5096313;27;45532;-65
2022/08/02 07:30:34;;;;;;;;;6.67;5.00;;;;;22.10;54.78;101238.97;5096938;27;45571;-64
2022/08/02 07:33:00;;;;;;;;;6.00;4.50;;;;;22.16;54.62;101261.94;5096304;27;45287;-66
2022/08/02 07:35:26;;;;;;;;;8.75;6.75;;;;;22.11;54.75;101256.06;5077119;28;45521;-63
2022/08/02 07:37:52;;;;;;;;;6.00;4.00;;;;;22.03;55.05;101256.78;5077270;28;45394;-66
2022/08/02 07:40:19;;;;;;;;;6.33;6.33;;;;;22.06;55.04;101253.81;5084021;27;45887;-63
2022/08/02 07:42:45;;;;;;;;;6.50;4.00;;;;;22.10;54.79;101254.38;5097765;27;45605;-63
2022/08/02 07:45:12;;;;;;;;;5.00;3.50;;;;;22.09;55.04;101250.81;5097479;27;45374;-65
2022/08/02 07:47:42;;;;;;;;;5.00;5.00;;;;;22.14;54.94;101240.41;5097480;27;45358;-64
2022/08/02 07:50:10;;;;;;;;;4.75;4.75;;;;;22.28;54.18;101252.66;5097551;27;45295;-64
2022/08/02 07:52:35;;;;;;;;;4.75;4.75;;;;;22.27;54.26;101262.63;5096989;27;45560;-63
2022/08/02 07:55:01;;;;;;;;;6.00;5.00;;;;;22.28;54.33;101242.66;5097642;27;45989;-64
2022/08/02 07:57:26;;;;;;;;;7.25;5.00;;;;;22.33;54.27;101244.91;5097239;27;45422;-64
2022/08/02 07:59:52;;;;;;;;;7.00;5.25;;;;;22.44;53.71;101252.03;5096524;27;45444;-65
2022/08/02 08:02:17;;;;;;;;;5.00;5.00;;;;;22.42;53.71;101243.19;5097706;27;45546;-65
2022/08/02 08:04:43;;;;;;;;;4.75;4.75;;;;;22.41;53.79;101241.50;5078706;27;45783;-65
2022/08/02 08:07:10;;;;;;;;;6.50;4.00;;;;;22.45;53.82;101253.75;5096191;27;45456;-65
2022/08/02 08:09:43;;;;;;;;;9.00;7.33;;;;;22.45;53.88;101246.47;5097234;27;45336;-64
2022/08/02 08:12:10;;;;;;;;;6.25;4.00;;;;;22.59;53.49;101247.84;5095091;27;45949;-64
2022/08/02 08:14:37;;;;;;;;;4.75;4.00;;;;;22.64;53.76;101242.81;5095938;27;45285;-64
2022/08/02 08:17:04;;;;;;;;;11.00;4.50;;;;;22.63;53.40;101241.09;5097942;27;45411;-66
2022/08/02 08:19:29;;;;;;;;;6.50;4.50;;;;;22.76;53.07;101247.06;5097688;27;45346;-66
2022/08/02 08:21:54;;;;;;;;;5.75;4.00;;;;;22.82;52.97;101241.06;5097651;27;45473;-65
2022/08/02 08:24:20;;;;;;;;;4.50;4.50;;;;;23.02;52.24;101251.81;5095983;27;46113;-64
2022/08/02 08:26:45;;;;;;;;;11.50;6.25;;;;;23.28;51.77;101244.69;5078992;27;45424;-64
2022/08/02 08:29:10;;;;;;;;;4.50;4.50;;;;;23.68;50.65;101243.44;5097480;27;45672;-67
2022/08/02 08:31:36;;;;;;;;;9.00;6.00;;;;;23.76;49.95;101240.81;5097719;27;45615;-63
2022/08/02 08:34:02;;;;;;;;;5.00;5.00;;;;;23.90;49.83;101234.81;5086461;27;45922;-64
2022/08/02 08:36:28;;;;;;;;;7.00;6.00;;;;;24.24;50.51;101234.06;5079591;27;45456;-65
2022/08/02 08:38:53;;;;;;;;;3.75;3.75;;;;;24.73;49.24;101234.38;5097387;27;45399;-64
2022/08/02 08:41:19;;;;;;;;;5.00;4.00;;;;;25.14;47.92;101222.69;5097322;27;45555;-66
2022/08/02 08:43:46;;;;;;;;;8.50;6.00;;;;;25.56;45.99;101221.78;5079292;27;46612;-65
2022/08/02 08:46:26;;;;;;;;;11.50;4.75;;;;;26.07;47.12;101220.63;5079479;27;45286;-65
2022/08/02 08:48:59;;;;;;;;;5.75;5.50;;;;;26.55;45.34;101213.38;5097010;27;45905;-66
2022/08/02 08:51:29;;;;;;;;;3.75;3.75;;;;;27.01;44.76;101225.38;5097128;27;45465;-65
2022/08/02 08:53:57;;;;;;;;;5.80;4.80;;;;;27.26;43.42;101227.97;5096761;27;45401;-67
2022/08/02 08:56:34;;;;;;;;;5.60;4.20;;;;;27.60;43.60;101213.91;5096945;27;45172;-64
2022/08/02 08:59:01;;;;;;;;;5.20;5.20;;;;;28.11;41.86;101227.88;5079641;27;45252;-65
2022/08/02 09:01:26;;;;;;;;;7.00;6.00;;;;;28.44;41.41;101222.97;5096222;27;45423;-66
2022/08/02 09:03:52;;;;;;;;;8.00;5.25;;;;;28.45;41.53;101205.53;5078410;27;46316;-65
2022/08/02 09:06:17;;;;;;;;;4.00;3.00;;;;;28.67;41.68;101209.22;5095014;27;45463;-66
2022/08/02 09:08:43;;;;;;;;;4.25;3.00;;;;;28.84;40.92;101210.72;5096876;27;45876;-66
2022/08/02 09:11:22;;;;;;;;;4.00;4.00;;;;;29.12;40.03;101216.34;5096943;27;45388;-66
2022/08/02 09:13:51;;;;;;;;;5.00;4.80;;;;;29.15;39.83;101202.25;5095454;27;45346;-67
2022/08/02 09:16:36;;;;;;;;;4.60;4.00;;;;;29.43;40.08;101209.75;5095312;27;45361;-66
2022/08/02 09:19:22;;;;;;;;;8.60;4.20;;;;;29.66;40.38;101207.69;5096553;27;45471;-66
2022/08/02 09:21:49;;;;;;;;;5.80;4.40;;;;;29.84;38.92;101210.00;5096527;27;45544;-67
2022/08/02 09:24:19;;;;;;;;;6.00;4.00;;;;;30.04;39.08;101211.00;5094101;27;45459;-65
2022/08/02 09:26:46;;;;;;;;;4.00;4.00;;;;;30.15;37.94;101195.94;5099067;27;45457;-64
2022/08/02 09:29:12;;;;;;;;;3.80;3.80;;;;;30.37;37.54;101205.81;5099763;27;45361;-67
2022/08/02 09:31:37;;;;;;;;;9.25;6.25;;;;;30.52;37.54;101200.19;5100320;27;45396;-65
2022/08/02 09:34:03;;;;;;;;;5.75;5.75;;;;;30.62;37.24;101202.59;5088636;27;45448;-67
2022/08/02 09:36:40;;;;;;;;;7.50;6.00;;;;;30.82;37.22;101198.91;5078286;27;45823;-66
2022/08/02 09:39:09;;;;;;;;;5.60;4.60;;;;;30.81;36.31;101188.13;5099029;27;45317;-66
2022/08/02 09:41:36;;;;;;;;;6.20;4.60;;;;;31.01;36.64;101191.81;5100139;27;45404;-66
2022/08/02 09:44:04;;;;;;;;;4.80;4.80;;;;;31.18;37.19;101197.78;5099366;27;45489;-66
2022/08/02 09:46:39;;;;;;;;;5.00;5.00;;;;;31.38;36.73;101200.59;5099628;27;45929;-66
2022/08/02 09:49:11;;;;;;;;;4.80;4.80;;;;;31.63;35.44;101189.88;5064592;27;45449;-66
2022/08/02 09:51:46;;;;;;;;;5.20;3.60;;;;;31.95;35.88;101199.25;5100326;27;45397;-65
2022/08/02 09:54:23;;;;;;;;;5.60;5.60;;;;;32.24;35.56;101193.28;5099636;27;45663;-66
2022/08/02 09:56:51;;;;;;;;;4.00;4.00;;;;;32.42;32.06;101183.53;5098464;27;45244;-67
2022/08/02 09:59:19;;;;;;;;;5.20;5.20;;;;;32.45;32.89;101188.63;5099709;27;45303;-65
2022/08/02 10:01:46;;;;;;;;;6.00;4.20;;;;;32.46;34.38;101173.81;5077301;27;45340;-67
2022/08/02 10:04:14;;;;;;;;;4.60;4.60;;;;;32.83;33.92;101175.00;5099266;27;45329;-66
2022/08/02 10:06:43;;;;;;;;;4.40;4.40;;;;;32.88;33.67;101177.09;5099977;27;45317;-67
2022/08/02 10:09:09;;;;;;;;;5.00;5.00;;;;;33.13;32.97;101183.53;5099830;27;45167;-66
2022/08/02 10:11:35;;;;;;;;;4.80;3.60;;;;;32.94;32.56;101173.44;5096359;27;45408;-68
2022/08/02 10:14:05;;;;;;;;;5.50;4.75;;;;;32.76;33.15;101169.47;5099273;27;45430;-66
2022/08/02 10:16:34;;;;;;;;;5.00;5.00;;;;;32.72;34.08;101170.13;5099213;27;45235;-66
2022/08/02 10:19:01;;;;;;;;;5.60;5.00;;;;;32.42;32.00;101172.53;5099474;27;45208;-67
2022/08/02 10:21:34;;;;;;;;;5.20;4.00;;;;;32.19;32.73;101154.56;5095863;27;45524;-66
2022/08/02 10:24:11;;;;;;;;;5.60;4.60;;;;;32.12;33.37;101172.97;5095408;27;45507;-66
2022/08/02 10:26:41;;;;;;;;;4.00;4.00;;;;;31.78;34.23;101181.47;5097795;27;45456;-66
2022/08/02 10:29:09;;;;;;;;;7.00;3.40;;;;;31.53;34.29;101173.81;5099418;27;45699;-67
2022/08/02 10:31:56;;;;;;;;;4.00;4.00;;;;;31.19;34.58;101177.53;5099281;27;45595;-67
2022/08/02 10:34:52;;;;;;;;;3.60;3.60;;;;;30.72;35.02;101165.47;5091178;27;46444;-67
2022/08/02 10:37:18;;;;;;;;;6.00;4.80;;;;;30.43;35.41;101171.22;5094028;27;45698;-66
2022/08/02 10:39:45;;;;;;;;;5.40;5.00;;;;;30.12;35.35;101175.22;5098287;27;45406;-67
2022/08/02 10:42:11;;;;;;;;;4.80;4.80;;;;;29.86;35.80;101175.84;5099985;27;45645;-66
2022/08/02 10:44:38;;;;;;;;;3.80;3.80;;;;;29.67;36.59;101171.88;5080683;27;47978;-66
2022/08/02 10:47:24;;;;;;;;;3.00;3.00;;;;;29.51;36.85;101174.03;5100224;27;45384;-67
2022/08/02 10:49:59;;;;;;;;;5.40;5.40;;;;;29.50;36.98;101175.06;5098126;27;45480;-68
2022/08/02 10:52:31;;;;;;;;;4.20;4.00;;;;;29.40;36.85;101171.78;5099307;27;45342;-66
2022/08/02 10:55:10;;;;;;;;;3.60;3.60;;;;;29.28;36.47;101172.28;5097995;27;45440;-66
2022/08/02 10:57:36;;;;;;;;;4.00;4.00;;;;;29.13;36.70;101167.91;5098296;27;45481;-67
2022/08/02 11:00:23;;;;;;;;;4.00;4.00;;;;;28.97;36.65;101169.84;5098742;27;45420;-68
2022/08/02 11:02:48;;;;;;;;;3.00;3.00;;;;;28.89;36.70;101167.19;5097534;27;45535;-66
2022/08/02 11:05:26;;;;;;;;;4.25;4.25;;;;;28.80;37.17;101151.91;5097170;27;45513;-67
2022/08/02 11:07:51;;;;;;;;;3.40;3.00;;;;;28.84;37.17;101158.69;5098312;27;45500;-67
2022/08/02 11:10:33;;;;;;;;;4.25;4.00;;;;;28.85;36.43;101159.53;5098512;27;45358;-66
2022/08/02 11:13:00;;;;;;;;;4.40;4.00;;;;;28.79;37.16;101162.00;5079844;27;45441;-67
2022/08/02 11:15:25;;;;;;;;;3.60;3.00;;;;;28.84;37.17;101160.56;5096906;27;45447;-66
2022/08/02 11:17:56;;;;;;;;;3.00;3.00;;;;;28.86;37.01;101150.28;5098149;27;45253;-66
2022/08/02 11:20:23;;;;;;;;;6.00;4.00;;;;;28.84;37.51;101147.75;5098510;27;45338;-68
2022/08/02 11:22:51;;;;;;;;;2.40;1.00;;;;;28.83;36.54;101150.66;5098497;27;45322;-68
2022/08/02 11:25:22;;;;;;;;;3.80;3.80;;;;;28.76;37.69;101154.16;5096262;27;45385;-67
2022/08/02 11:27:56;;;;;;;;;3.20;3.20;;;;;28.78;37.14;101143.03;5097905;27;45465;-67
2022/08/02 11:30:22;;;;;;;;;4.60;4.60;;;;;28.83;37.15;101147.94;5097916;27;45421;-67
2022/08/02 11:32:48;;;;;;;;;5.40;5.40;;;;;28.78;36.92;101141.16;5098078;27;45587;-68